createdAt,value
2023-04-09T00:01:34.379Z,102730.19
2023-04-09T00:04:01.403Z,102716.09
2023-04-09T00:06:28.060Z,102734.69
2023-04-09T00:08:54.783Z,102738.19
2023-04-09T00:11:21.684Z,102736.50
2023-04-09T00:13:48.419Z,102727.03
2023-04-09T00:16:15.090Z,102730.41
2023-04-09T00:18:41.858Z,102727.84
2023-04-09T00:21:08.881Z,102729.66
2023-04-09T00:23:36.543Z,102730.41
2023-04-09T00:26:03.178Z,102715.66
2023-04-09T00:28:29.760Z,102715.53
2023-04-09T00:30:57.294Z,102727.94
2023-04-09T00:33:23.984Z,102683.09
2023-04-09T00:35:50.608Z,102713.91
2023-04-09T00:38:17.247Z,102692.09
2023-04-09T00:40:44.190Z,102715.78
2023-04-09T00:43:10.774Z,102705.38
2023-04-09T00:45:38.086Z,102709.94
2023-04-09T00:48:04.887Z,102712.34
2023-04-09T00:50:31.525Z,102694.97
2023-04-09T00:52:58.192Z,102707.06
2023-04-09T00:55:25.336Z,102670.25
2023-04-09T00:57:51.919Z,102708.06
2023-04-09T01:00:18.505Z,102659.75
2023-04-09T01:02:45.635Z,102709.13
2023-04-09T01:05:13.397Z,102697.66
2023-04-09T01:08:02.024Z,102703.75
2023-04-09T01:10:36.488Z,102686.66
2023-04-09T01:13:13.237Z,102698.72
2023-04-09T01:15:54.440Z,102702.06
2023-04-09T01:18:39.633Z,102698.53
2023-04-09T01:21:11.902Z,102668.84
2023-04-09T01:24:05.033Z,102667.06
2023-04-09T01:26:55.062Z,102683.13
2023-04-09T01:29:24.025Z,102677.13
2023-04-09T01:31:52.225Z,102686.66
2023-04-09T01:34:20.596Z,102681.50
2023-04-09T01:36:54.388Z,102679.78
2023-04-09T01:39:21.559Z,102681.47
2023-04-09T01:41:50.440Z,102680.66
2023-04-09T01:44:18.427Z,102671.09
2023-04-09T01:46:47.215Z,102677.25
2023-04-09T01:49:15.395Z,102676.38
2023-04-09T01:51:42.260Z,102670.56
2023-04-09T01:54:09.039Z,102678.41
2023-04-09T01:56:42.556Z,102668.09
2023-04-09T01:59:09.229Z,102660.16
2023-04-09T02:01:46.973Z,102673.16
2023-04-09T02:04:40.650Z,102673.22
2023-04-09T02:07:11.069Z,102668.88
2023-04-09T02:09:40.069Z,102676.53
2023-04-09T02:12:10.952Z,102674.75
2023-04-09T02:14:38.371Z,102673.00
2023-04-09T02:17:05.144Z,102667.13
2023-04-09T02:19:43.167Z,102667.94
2023-04-09T02:22:10.754Z,102664.47
2023-04-09T02:24:37.910Z,102671.41
2023-04-09T02:27:04.813Z,102666.25
2023-04-09T02:29:31.780Z,102660.09
2023-04-09T02:31:58.388Z,102668.97
2023-04-09T02:34:25.463Z,102669.53
2023-04-09T02:36:52.045Z,102671.31
2023-04-09T02:39:18.611Z,102667.78
2023-04-09T02:41:45.259Z,102657.44
2023-04-09T02:44:11.837Z,102658.56
2023-04-09T02:46:39.585Z,102660.16
2023-04-09T02:49:06.319Z,102657.44
2023-04-09T02:51:35.393Z,102651.50
2023-04-09T02:54:02.963Z,102653.91
2023-04-09T02:56:29.517Z,102654.00
2023-04-09T02:58:56.112Z,102656.69
2023-04-09T03:01:22.749Z,102650.69
2023-04-09T03:03:49.573Z,102651.50
2023-04-09T03:06:16.211Z,102645.41
2023-04-09T03:08:42.768Z,102644.53
2023-04-09T03:11:09.274Z,102647.16
2023-04-09T03:13:35.903Z,102642.03
2023-04-09T03:16:02.471Z,102643.63
2023-04-09T03:18:29.061Z,102641.06
2023-04-09T03:20:55.706Z,102644.59
2023-04-09T03:23:22.288Z,102640.19
2023-04-09T03:25:48.924Z,102642.78
2023-04-09T03:28:15.540Z,102640.28
2023-04-09T03:30:42.159Z,102641.16
2023-04-09T03:33:08.794Z,102624.88
2023-04-09T03:35:35.324Z,102628.31
2023-04-09T03:38:01.872Z,102623.09
2023-04-09T03:40:28.358Z,102616.22
2023-04-09T03:42:54.857Z,102620.72
2023-04-09T03:45:21.397Z,102620.69
2023-04-09T03:47:47.949Z,102623.25
2023-04-09T03:50:14.566Z,102625.81
2023-04-09T03:52:41.136Z,102614.59
2023-04-09T03:55:08.526Z,102620.69
2023-04-09T03:57:35.231Z,102617.16
2023-04-09T04:00:01.801Z,102612.09
2023-04-09T04:02:31.321Z,102617.25
2023-04-09T04:04:58.034Z,102616.41
2023-04-09T04:07:24.602Z,102606.50
2023-04-09T04:09:51.266Z,102617.16
2023-04-09T04:12:17.802Z,102612.97
2023-04-09T04:14:44.322Z,102607.63
2023-04-09T04:17:11.084Z,102606.22
2023-04-09T04:19:37.610Z,102613.97
2023-04-09T04:22:04.157Z,102607.97
2023-04-09T04:24:30.652Z,102589.78
2023-04-09T04:26:57.121Z,102597.69
2023-04-09T04:29:23.678Z,102601.88
2023-04-09T04:31:50.299Z,102604.59
2023-04-09T04:34:16.883Z,102599.38
2023-04-09T04:36:43.396Z,102597.69
2023-04-09T04:39:09.948Z,102598.63
2023-04-09T04:41:36.555Z,102586.25
2023-04-09T04:44:03.107Z,102598.56
2023-04-09T04:46:29.669Z,102606.22
2023-04-09T04:48:56.217Z,102597.78
2023-04-09T04:51:22.836Z,102602.81
2023-04-09T04:53:49.376Z,102601.94
2023-04-09T04:56:16.218Z,102608.13
2023-04-09T04:58:43.350Z,102603.91
2023-04-09T05:01:10.078Z,102607.38
2023-04-09T05:03:36.782Z,102607.38
2023-04-09T05:06:03.546Z,102598.56
2023-04-09T05:08:30.388Z,102608.16
2023-04-09T05:10:57.016Z,102608.13
2023-04-09T05:13:24.203Z,102620.16
2023-04-09T05:15:50.888Z,102609.00
2023-04-09T05:18:17.541Z,102602.97
2023-04-09T05:20:44.071Z,102606.47
2023-04-09T05:23:10.676Z,102603.69
2023-04-09T05:25:37.207Z,102602.81
2023-04-09T05:28:03.744Z,102612.31
2023-04-09T05:30:30.423Z,102607.84
2023-04-09T05:32:56.992Z,102613.19
2023-04-09T05:35:23.578Z,102612.22
2023-04-09T05:37:50.236Z,102620.81
2023-04-09T05:40:16.814Z,102614.81
2023-04-09T05:42:43.368Z,102624.25
2023-04-09T05:45:10.566Z,102618.97
2023-04-09T05:47:37.172Z,102621.63
2023-04-09T05:50:04.425Z,102625.00
2023-04-09T05:52:31.028Z,102619.84
2023-04-09T05:54:57.566Z,102625.00
2023-04-09T05:57:24.234Z,102614.59
2023-04-09T05:59:50.726Z,102628.69
2023-04-09T06:02:17.404Z,102623.66
2023-04-09T06:04:44.094Z,102627.03
2023-04-09T06:07:10.758Z,102625.38
2023-04-09T06:09:38.057Z,102620.97
2023-04-09T06:12:04.714Z,102618.41
2023-04-09T06:14:33.178Z,102623.66
2023-04-09T06:16:59.998Z,102628.81
2023-04-09T06:19:26.791Z,102621.03
2023-04-09T06:21:53.340Z,102636.66
2023-04-09T06:24:19.883Z,102639.22
2023-04-09T06:26:46.478Z,102636.66
2023-04-09T06:29:13.056Z,102633.41
2023-04-09T06:31:39.671Z,102636.84
2023-04-09T06:34:06.378Z,102630.91
2023-04-09T06:36:33.875Z,102641.19
2023-04-09T06:39:00.884Z,102644.44
2023-04-09T06:41:28.175Z,102642.00
2023-04-09T06:43:54.868Z,102636.81
2023-04-09T06:46:21.668Z,102640.66
2023-04-09T06:48:48.234Z,102642.16
2023-04-09T06:51:15.153Z,102635.53
2023-04-09T06:53:42.262Z,102644.06
2023-04-09T06:56:09.219Z,102637.22
2023-04-09T06:58:35.920Z,102641.53
2023-04-09T07:01:02.798Z,102650.19
2023-04-09T07:03:29.945Z,102640.75
2023-04-09T07:05:57.720Z,102651.16
2023-04-09T07:08:24.656Z,102642.44
2023-04-09T07:10:51.381Z,102645.13
2023-04-09T07:13:18.051Z,102642.69
2023-04-09T07:15:44.600Z,102640.88
2023-04-09T07:18:11.213Z,102644.59
2023-04-09T07:20:37.829Z,102653.16
2023-04-09T07:23:04.435Z,102655.16
2023-04-09T07:25:31.100Z,102648.25
2023-04-09T07:27:57.623Z,102650.81
2023-04-09T07:30:24.367Z,102655.22
2023-04-09T07:32:50.970Z,102654.41
2023-04-09T07:35:18.731Z,102653.53
2023-04-09T07:37:45.379Z,102655.22
2023-04-09T07:40:12.281Z,102651.84
2023-04-09T07:42:39.512Z,102649.34
2023-04-09T07:45:06.978Z,102643.28
2023-04-09T07:47:33.852Z,102654.69
2023-04-09T07:50:00.672Z,102655.69
2023-04-09T07:52:27.286Z,102648.16
2023-04-09T07:54:53.843Z,102648.66
2023-04-09T07:57:20.376Z,102642.34
2023-04-09T07:59:47.212Z,102643.59
2023-04-09T08:02:15.364Z,102643.81
2023-04-09T08:04:42.579Z,102644.94
2023-04-09T08:07:09.426Z,102637.41
2023-04-09T08:09:35.965Z,102641.78
2023-04-09T08:12:02.545Z,102643.69
2023-04-09T08:14:29.120Z,102640.66
2023-04-09T08:16:56.464Z,102635.66
2023-04-09T08:19:23.105Z,102640.22
2023-04-09T08:21:49.724Z,102632.75
2023-04-09T08:24:16.408Z,102643.44
2023-04-09T08:26:43.532Z,102642.22
2023-04-09T08:29:11.511Z,102641.69
2023-04-09T08:31:38.440Z,102635.47
2023-04-09T08:34:05.841Z,102639.00
2023-04-09T08:36:32.749Z,102634.50
2023-04-09T08:39:00.640Z,102640.38
2023-04-09T08:41:29.393Z,102635.75
2023-04-09T08:43:58.774Z,102639.03
2023-04-09T08:46:26.605Z,102635.31
2023-04-09T08:48:53.777Z,102622.34
2023-04-09T08:51:22.747Z,102625.69
2023-04-09T08:53:56.535Z,102616.97
2023-04-09T08:56:23.920Z,102614.47
2023-04-09T08:58:50.940Z,102613.25
2023-04-09T09:01:24.582Z,102617.91
2023-04-09T09:03:57.265Z,102617.59
2023-04-09T09:06:27.194Z,102613.63
2023-04-09T09:09:06.204Z,102610.50
2023-04-09T09:11:34.648Z,102617.56
2023-04-09T09:14:04.312Z,102603.34
2023-04-09T09:16:33.128Z,102614.44
2023-04-09T09:19:00.364Z,102593.75
2023-04-09T09:21:28.734Z,102609.50
2023-04-09T09:23:55.352Z,102605.56
2023-04-09T09:26:28.728Z,102605.41
2023-04-09T09:28:56.543Z,102598.38
2023-04-09T09:31:23.584Z,102597.56
2023-04-09T09:33:51.173Z,102590.09
2023-04-09T09:36:34.844Z,102583.06
2023-04-09T09:39:05.263Z,102593.81
2023-04-09T09:41:31.912Z,102586.69
2023-04-09T09:43:58.668Z,102586.00
2023-04-09T09:46:26.552Z,102589.22
2023-04-09T09:48:53.595Z,102587.09
2023-04-09T09:51:25.856Z,102575.38
2023-04-09T09:53:56.609Z,102580.56
2023-04-09T09:56:27.100Z,102578.09
2023-04-09T09:59:20.033Z,102567.44
2023-04-09T10:01:48.833Z,102575.03
2023-04-09T10:04:16.697Z,102572.72
2023-04-09T10:06:44.780Z,102574.44
2023-04-09T10:09:12.633Z,102569.34
2023-04-09T10:11:42.544Z,102571.34
2023-04-09T10:14:09.960Z,102573.44
2023-04-09T10:16:37.115Z,102563.34
2023-04-09T10:19:03.924Z,102553.78
2023-04-09T10:21:45.444Z,102558.06
2023-04-09T10:24:12.365Z,102552.44
2023-04-09T10:26:42.397Z,102535.09
2023-04-09T10:29:14.040Z,102543.59
2023-04-09T10:32:06.439Z,102534.00
2023-04-09T10:34:39.808Z,102533.09
2023-04-09T10:37:09.673Z,102534.22
2023-04-09T10:39:41.776Z,102528.56
2023-04-09T10:42:13.495Z,102530.56
2023-04-09T10:44:41.756Z,102524.94
2023-04-09T10:47:10.096Z,102522.09
2023-04-09T10:49:42.441Z,102523.63
2023-04-09T10:52:13.858Z,102515.28
2023-04-09T10:54:46.310Z,102514.00
2023-04-09T10:57:15.001Z,102519.34
2023-04-09T10:59:52.344Z,102514.97
2023-04-09T11:02:28.312Z,102506.38
2023-04-09T11:05:16.545Z,102502.84
2023-04-09T11:07:55.897Z,102496.59
2023-04-09T11:10:22.529Z,102506.09
2023-04-09T11:12:49.475Z,102496.69
2023-04-09T11:15:18.392Z,102484.19
2023-04-09T11:17:47.328Z,102493.06
2023-04-09T11:20:15.334Z,102490.69
2023-04-09T11:22:42.094Z,102482.78
2023-04-09T11:25:09.055Z,102487.25
2023-04-09T11:27:39.079Z,102481.81
2023-04-09T11:30:06.495Z,102471.50
2023-04-09T11:32:33.226Z,102467.44
2023-04-09T11:34:59.828Z,102455.63
2023-04-09T11:37:26.556Z,102457.31
2023-04-09T11:39:57.340Z,102459.75
2023-04-09T11:42:25.883Z,102458.03
2023-04-09T11:44:53.476Z,102464.63
2023-04-09T11:47:21.346Z,102454.50
2023-04-09T11:49:48.005Z,102468.38
2023-04-09T11:52:16.778Z,102459.53
2023-04-09T11:54:49.323Z,102462.63
2023-04-09T11:57:16.306Z,102458.06
2023-04-09T11:59:43.114Z,102463.22
2023-04-09T12:02:09.764Z,102454.59
2023-04-09T12:04:36.502Z,102451.72
2023-04-09T12:07:03.170Z,102456.75
2023-04-09T12:09:29.789Z,102464.13
2023-04-09T12:11:57.510Z,102453.84
2023-04-09T12:14:24.133Z,102436.16
2023-04-09T12:16:52.398Z,102442.53
2023-04-09T12:19:20.450Z,102443.13
2023-04-09T12:21:52.932Z,102453.03
2023-04-09T12:24:21.741Z,102461.75
2023-04-09T12:26:49.142Z,102444.41
2023-04-09T12:29:17.471Z,102444.69
2023-04-09T12:31:45.119Z,102446.16
2023-04-09T12:34:12.678Z,102441.31
2023-04-09T12:36:41.526Z,102437.91
2023-04-09T12:39:09.385Z,102445.41
2023-04-09T12:41:35.968Z,102447.00
2023-04-09T12:44:02.692Z,102435.63
2023-04-09T12:46:29.341Z,102440.25
2023-04-09T12:48:55.967Z,102443.81
2023-04-09T12:51:23.022Z,102447.25
2023-04-09T12:53:49.643Z,102445.44
2023-04-09T12:56:16.192Z,102443.00
2023-04-09T12:58:42.729Z,102439.69
2023-04-09T13:01:09.383Z,102434.63
2023-04-09T13:03:36.338Z,102431.81
2023-04-09T13:06:03.204Z,102439.66
2023-04-09T13:08:30.008Z,102442.25
2023-04-09T13:10:56.603Z,102442.31
2023-04-09T13:13:23.421Z,102443.84
2023-04-09T13:15:50.018Z,102443.16
2023-04-09T13:18:16.585Z,102444.13
2023-04-09T13:20:43.173Z,102435.28
2023-04-09T13:23:09.793Z,102428.63
2023-04-09T13:25:36.299Z,102428.03
2023-04-09T13:28:02.891Z,102430.53
2023-04-09T13:30:29.462Z,102440.75
2023-04-09T13:32:56.131Z,102439.00
2023-04-09T13:35:22.854Z,102429.50
2023-04-09T13:37:49.386Z,102426.94
2023-04-09T13:40:16.433Z,102414.00
2023-04-09T13:42:42.984Z,102415.72
2023-04-09T13:45:09.872Z,102406.97
2023-04-09T13:47:36.681Z,102400.03
2023-04-09T13:50:03.582Z,102411.28
2023-04-09T13:52:32.350Z,102395.59
2023-04-09T13:54:58.886Z,102398.00
2023-04-09T13:57:25.600Z,102386.78
2023-04-09T13:59:52.133Z,102392.97
2023-04-09T14:02:19.377Z,102400.75
2023-04-09T14:04:46.494Z,102395.34
2023-04-09T14:07:13.237Z,102391.72
2023-04-09T14:09:39.749Z,102389.00
2023-04-09T14:12:06.444Z,102379.50
2023-04-09T14:14:33.050Z,102381.50
2023-04-09T14:16:59.709Z,102377.13
2023-04-09T14:19:26.283Z,102378.03
2023-04-09T14:21:53.892Z,102376.25
2023-04-09T14:24:22.995Z,102376.09
2023-04-09T14:26:53.475Z,102367.28
2023-04-09T14:29:21.556Z,102368.94
2023-04-09T14:31:48.217Z,102370.75
2023-04-09T14:34:14.803Z,102364.84
2023-04-09T14:36:41.535Z,102354.44
2023-04-09T14:39:08.090Z,102351.91
2023-04-09T14:41:36.637Z,102354.41
2023-04-09T14:44:03.389Z,102348.28
2023-04-09T14:46:29.933Z,102346.56
2023-04-09T14:48:56.475Z,102347.44
2023-04-09T14:51:24.205Z,102340.59
2023-04-09T14:53:50.743Z,102324.13
2023-04-09T14:56:17.317Z,102329.38
2023-04-09T14:58:43.844Z,102335.22
2023-04-09T15:01:10.366Z,102329.03
2023-04-09T15:03:37.023Z,102329.00
2023-04-09T15:06:03.999Z,102323.97
2023-04-09T15:08:30.562Z,102321.31
2023-04-09T15:10:57.121Z,102317.88
2023-04-09T15:13:24.300Z,102304.06
2023-04-09T15:15:51.210Z,102312.69
2023-04-09T15:18:18.692Z,102308.22
2023-04-09T15:20:46.223Z,102305.69
2023-04-09T15:23:13.037Z,102296.97
2023-04-09T15:25:39.653Z,102303.91
2023-04-09T15:28:06.665Z,102293.47
2023-04-09T15:30:35.320Z,102295.94
2023-04-09T15:33:01.897Z,102296.75
2023-04-09T15:35:29.378Z,102298.53
2023-04-09T15:37:58.919Z,102294.25
2023-04-09T15:40:25.890Z,102284.09
2023-04-09T15:42:52.512Z,102286.63
2023-04-09T15:45:19.118Z,102281.34
2023-04-09T15:47:46.153Z,102289.84
2023-04-09T15:50:13.738Z,102288.22
2023-04-09T15:52:40.313Z,102289.03
2023-04-09T15:55:07.199Z,102283.69
2023-04-09T15:57:33.763Z,102283.63
2023-04-09T16:00:00.484Z,102278.34
2023-04-09T16:02:27.256Z,102289.53
2023-04-09T16:04:53.928Z,102287.06
2023-04-09T16:07:20.533Z,102292.97
2023-04-09T16:09:47.212Z,102296.28
2023-04-09T16:12:13.739Z,102297.19
2023-04-09T16:14:41.002Z,102297.84
2023-04-09T16:17:07.700Z,102290.03
2023-04-09T16:19:34.321Z,102289.16
2023-04-09T16:22:01.714Z,102296.09
2023-04-09T16:24:28.585Z,102290.72
2023-04-09T16:26:56.487Z,102289.75
2023-04-09T16:29:23.041Z,102285.38
2023-04-09T16:31:49.609Z,102288.06
2023-04-09T16:34:16.508Z,102277.38
2023-04-09T16:36:43.348Z,102292.19
2023-04-09T16:39:10.897Z,102288.72
2023-04-09T16:41:38.419Z,102288.53
2023-04-09T16:44:05.005Z,102284.25
2023-04-09T16:46:31.654Z,102280.63
2023-04-09T16:48:58.351Z,102274.72
2023-04-09T16:51:24.932Z,102274.44
2023-04-09T16:53:51.681Z,102270.84
2023-04-09T16:56:18.437Z,102271.47
2023-04-09T16:58:46.044Z,102264.34
2023-04-09T17:01:12.767Z,102267.72
2023-04-09T17:03:39.454Z,102261.06
2023-04-09T17:06:06.742Z,102265.66
2023-04-09T17:08:35.317Z,102258.63
2023-04-09T17:11:02.465Z,102262.69
2023-04-09T17:13:31.617Z,102258.97
2023-04-09T17:15:58.686Z,102240.56
2023-04-09T17:18:25.268Z,102263.09
2023-04-09T17:20:52.199Z,102257.00
2023-04-09T17:23:19.204Z,102255.09
2023-04-09T17:25:47.128Z,102266.09
2023-04-09T17:28:13.726Z,102272.09
2023-04-09T17:30:40.393Z,102265.28
2023-04-09T17:33:07.367Z,102267.75
2023-04-09T17:35:34.214Z,102269.97
2023-04-09T17:38:01.374Z,102270.88
2023-04-09T17:40:28.381Z,102262.84
2023-04-09T17:42:56.115Z,102270.63
2023-04-09T17:45:22.670Z,102278.25
2023-04-09T17:47:51.146Z,102271.03
2023-04-09T17:50:18.392Z,102280.25
2023-04-09T17:52:44.960Z,102279.13
2023-04-09T17:55:12.987Z,102279.72
2023-04-09T17:57:40.442Z,102279.47
2023-04-09T18:00:07.681Z,102274.19
2023-04-09T18:02:35.277Z,102281.09
2023-04-09T18:05:04.696Z,102279.13
2023-04-09T18:07:33.907Z,102285.13
2023-04-09T18:10:01.986Z,102277.22
2023-04-09T18:12:28.668Z,102277.97
2023-04-09T18:14:55.627Z,102272.63
2023-04-09T18:17:25.138Z,102274.91
2023-04-09T18:19:54.393Z,102284.31
2023-04-09T18:22:20.925Z,102270.94
2023-04-09T18:24:47.456Z,102275.47
2023-04-09T18:27:13.983Z,102264.91
2023-04-09T18:29:40.480Z,102262.97
2023-04-09T18:32:07.102Z,102256.47
2023-04-09T18:34:33.696Z,102275.38
2023-04-09T18:37:00.275Z,102271.03
2023-04-09T18:39:27.204Z,102279.50
2023-04-09T18:41:53.784Z,102279.16
2023-04-09T18:44:20.304Z,102284.91
2023-04-09T18:46:47.213Z,102288.06
2023-04-09T18:49:13.787Z,102278.34
2023-04-09T18:51:40.446Z,102282.59
2023-04-09T18:54:06.988Z,102274.59
2023-04-09T18:56:33.606Z,102273.06
2023-04-09T18:59:00.422Z,102284.50
2023-04-09T19:01:27.008Z,102289.22
2023-04-09T19:03:54.098Z,102284.31
2023-04-09T19:06:21.676Z,102284.88
2023-04-09T19:08:50.083Z,102285.41
2023-04-09T19:11:16.976Z,102279.97
2023-04-09T19:13:43.554Z,102276.28
2023-04-09T19:16:10.218Z,102289.16
2023-04-09T19:18:37.191Z,102288.84
2023-04-09T19:21:05.295Z,102283.41
2023-04-09T19:23:34.137Z,102280.53
2023-04-09T19:26:01.213Z,102277.66
2023-04-09T19:28:27.755Z,102278.38
2023-04-09T19:30:54.313Z,102266.75
2023-04-09T19:33:22.116Z,102279.00
2023-04-09T19:35:49.666Z,102274.47
2023-04-09T19:38:17.445Z,102279.34
2023-04-09T19:40:44.913Z,102287.75
2023-04-09T19:43:12.202Z,102288.34
2023-04-09T19:45:40.319Z,102284.03
2023-04-09T19:48:07.430Z,102286.66
2023-04-09T19:50:38.490Z,102277.00
2023-04-09T19:53:05.979Z,102271.78
2023-04-09T19:55:35.871Z,102266.50
2023-04-09T19:58:03.156Z,102271.75
2023-04-09T20:00:29.779Z,102262.41
2023-04-09T20:02:57.243Z,102266.63
2023-04-09T20:05:24.123Z,102258.59
2023-04-09T20:07:51.700Z,102266.63
2023-04-09T20:10:18.633Z,102256.19
2023-04-09T20:12:49.318Z,102265.78
2023-04-09T20:15:17.594Z,102256.94
2023-04-09T20:17:44.287Z,102262.25
2023-04-09T20:20:11.800Z,102254.22
2023-04-09T20:22:43.061Z,102253.25
2023-04-09T20:25:12.899Z,102240.75
2023-04-09T20:27:39.846Z,102250.41
2023-04-09T20:30:07.135Z,102252.88
2023-04-09T20:32:33.667Z,102244.38
2023-04-09T20:35:00.412Z,102255.69
2023-04-09T20:37:26.952Z,102248.66
2023-04-09T20:39:53.458Z,102253.47
2023-04-09T20:42:20.060Z,102244.94
2023-04-09T20:44:46.653Z,102242.44
2023-04-09T20:47:13.469Z,102250.88
2023-04-09T20:49:40.060Z,102245.03
2023-04-09T20:52:09.326Z,102245.00
2023-04-09T20:54:36.392Z,102232.72
2023-04-09T20:57:03.549Z,102244.09
2023-04-09T20:59:30.116Z,102242.13
2023-04-09T21:01:57.239Z,102252.28
2023-04-09T21:04:25.552Z,102241.56
2023-04-09T21:06:52.341Z,102244.81
2023-04-09T21:09:18.862Z,102257.09
2023-04-09T21:11:45.633Z,102254.34
2023-04-09T21:14:13.559Z,102248.78
2023-04-09T21:16:40.456Z,102242.25
2023-04-09T21:19:07.280Z,102245.53
2023-04-09T21:21:34.711Z,102249.84
2023-04-09T21:24:01.354Z,102241.91
2023-04-09T21:26:31.814Z,102242.97
2023-04-09T21:29:05.172Z,102247.34
2023-04-09T21:31:31.779Z,102246.34
2023-04-09T21:33:58.336Z,102243.06
2023-04-09T21:36:26.430Z,102233.47
2023-04-09T21:38:53.216Z,102241.38
2023-04-09T21:41:19.944Z,102245.63
2023-04-09T21:43:46.458Z,102253.66
2023-04-09T21:46:12.982Z,102233.63
2023-04-09T21:48:40.953Z,102233.63
2023-04-09T21:51:11.534Z,102243.25
2023-04-09T21:53:38.114Z,102249.22
2023-04-09T21:56:05.137Z,102244.59
2023-04-09T21:58:31.788Z,102252.19
2023-04-09T22:00:58.491Z,102248.56
2023-04-09T22:03:25.915Z,102246.75
2023-04-09T22:05:52.579Z,102242.72
2023-04-09T22:08:19.113Z,102242.25
2023-04-09T22:10:45.640Z,102233.78
2023-04-09T22:13:12.245Z,102242.25
2023-04-09T22:15:38.891Z,102245.41
2023-04-09T22:18:05.642Z,102240.50
2023-04-09T22:20:32.155Z,102238.84
2023-04-09T22:22:58.810Z,102242.19
2023-04-09T22:25:25.535Z,102238.00
2023-04-09T22:27:53.207Z,102228.47
2023-04-09T22:30:21.842Z,102228.63
2023-04-09T22:32:48.432Z,102231.84
2023-04-09T22:35:18.198Z,102230.03
2023-04-09T22:37:46.934Z,102217.72
2023-04-09T22:40:15.570Z,102215.03
2023-04-09T22:42:47.421Z,102211.63
2023-04-09T22:45:14.238Z,102203.91
2023-04-09T22:47:40.934Z,102201.59
2023-04-09T22:50:08.294Z,102192.25
2023-04-09T22:52:34.811Z,102195.06
2023-04-09T22:55:02.016Z,102198.53
2023-04-09T22:57:28.719Z,102204.56
2023-04-09T22:59:55.405Z,102199.25
2023-04-09T23:02:22.053Z,102195.59
2023-04-09T23:04:48.719Z,102187.56
2023-04-09T23:07:15.510Z,102190.38
2023-04-09T23:09:42.155Z,102193.88
2023-04-09T23:12:08.741Z,102198.53
2023-04-09T23:14:35.625Z,102203.47
2023-04-09T23:17:02.148Z,102193.22
2023-04-09T23:19:28.727Z,102202.66
2023-04-09T23:21:55.494Z,102192.19
2023-04-09T23:24:22.030Z,102182.59
2023-04-09T23:26:48.575Z,102177.53
2023-04-09T23:29:15.140Z,102184.78
2023-04-09T23:31:41.688Z,102176.69
2023-04-09T23:34:08.240Z,102171.03
2023-04-09T23:36:34.741Z,102173.78
2023-04-09T23:39:01.295Z,102171.00
2023-04-09T23:41:27.912Z,102178.66
2023-04-09T23:43:54.684Z,102175.78
2023-04-09T23:46:21.503Z,102181.91
2023-04-09T23:48:48.112Z,102173.84
2023-04-09T23:51:18.372Z,102165.31
2023-04-09T23:53:45.075Z,102159.28
2023-04-09T23:56:14.162Z,102159.19
2023-04-09T23:58:40.850Z,102150.44
